Time;durP1;ratioP1;P1;durP2;ratioP2;P2;SDS_P1;SDS_P2;PMS_P1;PMS_P2;Temp;Humidity;BMP_temperature;BMP_pressure;BME280_temperature;BME280_humidity;BME280_pressure;Samples;Min_cycle;Max_cycle;Signal;HPM_P1;HPM_P2
2022/12/12 00:02:25;;;;;;;36.17;14.88;;;0.20;99.90;;;;;;5051519;28;20470;-65
2022/12/12 00:04:50;;;;;;;39.30;16.10;;;0.20;99.90;;;;;;5049875;28;20025;-65
2022/12/12 00:07:16;;;;;;;41.65;15.50;;;0.20;99.90;;;;;;5051744;28;20025;-66
2022/12/12 00:09:41;;;;;;;35.35;16.02;;;0.20;99.90;;;;;;5049851;28;20174;-66
2022/12/12 00:12:07;;;;;;;36.33;16.45;;;0.20;99.90;;;;;;5052273;28;20052;-65
2022/12/12 00:14:33;;;;;;;39.65;15.15;;;0.20;99.90;;;;;;5047877;28;20490;-65
2022/12/12 00:16:59;;;;;;;49.90;15.70;;;0.20;99.90;;;;;;5045812;28;20481;-66
2022/12/12 00:19:24;;;;;;;40.30;17.08;;;0.20;99.90;;;;;;5041266;28;20093;-66
2022/12/12 00:21:50;;;;;;;45.83;17.05;;;0.10;99.90;;;;;;5042875;28;20036;-66
2022/12/12 00:24:16;;;;;;;39.42;15.68;;;0.10;99.90;;;;;;5023121;28;20053;-67
2022/12/12 00:26:41;;;;;;;37.33;15.27;;;0.10;99.90;;;;;;5045113;28;20083;-66
2022/12/12 00:29:07;;;;;;;42.70;15.95;;;0.10;99.90;;;;;;5039816;28;20096;-66
2022/12/12 00:31:33;;;;;;;36.30;14.85;;;0.10;99.90;;;;;;5044291;28;20025;-66
2022/12/12 00:33:59;;;;;;;37.38;16.13;;;0.10;99.90;;;;;;5039129;28;20368;-66
2022/12/12 00:36:27;;;;;;;39.05;16.50;;;0.00;99.90;;;;;;5043052;28;20082;-66
2022/12/12 00:38:53;;;;;;;35.78;15.27;;;0.00;99.90;;;;;;5042841;28;20033;-66
2022/12/12 00:41:20;;;;;;;38.05;15.00;;;0.00;99.90;;;;;;5038644;28;20041;-66
2022/12/12 00:43:45;;;;;;;31.95;14.80;;;0.10;99.90;;;;;;5048007;28;20490;-66
2022/12/12 00:46:23;;;;;;;38.03;14.95;;;0.00;99.90;;;;;;5050559;28;20058;-66
2022/12/12 00:48:52;;;;;;;37.22;15.63;;;0.10;99.90;;;;;;5044982;28;20048;-66
2022/12/12 00:51:20;;;;;;;39.72;15.95;;;0.10;99.90;;;;;;5059623;28;20040;-66
2022/12/12 00:53:48;;;;;;;37.47;15.00;;;0.10;99.90;;;;;;5046181;28;20021;-66
2022/12/12 00:56:15;;;;;;;36.60;15.68;;;0.10;99.90;;;;;;5055229;28;20044;-66
2022/12/12 00:58:41;;;;;;;40.20;15.77;;;0.10;99.90;;;;;;5044838;28;20033;-66
2022/12/12 01:01:12;;;;;;;40.28;15.80;;;0.20;99.90;;;;;;5047423;28;20044;-65
2022/12/12 01:03:40;;;;;;;41.65;16.85;;;0.20;99.90;;;;;;5042734;28;20029;-66
2022/12/12 01:06:06;;;;;;;45.75;15.95;;;0.20;99.90;;;;;;5043601;28;20116;-64
2022/12/12 01:08:32;;;;;;;37.90;16.15;;;0.20;99.90;;;;;;5039565;28;20025;-67
2022/12/12 01:10:57;;;;;;;33.40;16.05;;;0.20;99.90;;;;;;5044791;28;20031;-66
2022/12/12 01:13:24;;;;;;;38.03;15.88;;;0.20;99.90;;;;;;5052381;28;20059;-66
2022/12/12 01:15:49;;;;;;;39.58;15.40;;;0.20;99.90;;;;;;5050016;28;20112;-66
2022/12/12 01:18:16;;;;;;;38.50;15.65;;;0.20;99.90;;;;;;5052200;28;20457;-66
2022/12/12 01:20:42;;;;;;;37.95;16.33;;;0.30;99.90;;;;;;5053060;28;20029;-64
2022/12/12 01:23:07;;;;;;;35.85;16.27;;;0.20;99.90;;;;;;5050948;28;20076;-66
2022/12/12 01:25:34;;;;;;;39.13;15.70;;;0.20;99.90;;;;;;5009467;28;20403;-66
2022/12/12 01:27:59;;;;;;;39.60;15.27;;;0.20;99.90;;;;;;5048714;28;20025;-67
2022/12/12 01:30:26;;;;;;;39.38;15.70;;;0.20;99.90;;;;;;5048563;28;20025;-66
2022/12/12 01:32:53;;;;;;;40.65;15.73;;;0.20;99.90;;;;;;5042490;28;20032;-66
2022/12/12 01:35:20;;;;;;;39.47;14.98;;;0.20;99.90;;;;;;5050765;28;20029;-66
2022/12/12 01:37:45;;;;;;;39.05;15.82;;;0.20;99.90;;;;;;5057667;28;20043;-64
2022/12/12 01:40:17;;;;;;;37.70;15.45;;;0.20;99.90;;;;;;5054982;28;20145;-66
2022/12/12 01:42:43;;;;;;;34.15;15.15;;;0.20;99.90;;;;;;5055527;28;20593;-67
2022/12/12 01:45:47;;;;;;;35.38;17.15;;;0.20;99.90;;;;;;5052286;28;20025;-66
2022/12/12 01:48:12;;;;;;;37.03;15.03;;;0.20;99.90;;;;;;5046147;28;20021;-65
2022/12/12 01:50:40;;;;;;;36.88;14.60;;;0.20;99.90;;;;;;5048438;28;21984;-66
2022/12/12 01:53:06;;;;;;;37.15;14.18;;;0.20;99.90;;;;;;5044687;28;20477;-67
2022/12/12 01:55:32;;;;;;;33.42;14.25;;;0.20;99.90;;;;;;5018358;28;20494;-65
2022/12/12 01:57:58;;;;;;;36.28;14.70;;;0.20;99.90;;;;;;5047016;28;20040;-66
2022/12/12 02:00:23;;;;;;;36.47;15.77;;;0.20;99.90;;;;;;5040683;28;20029;-65
2022/12/12 02:02:51;;;;;;;37.97;15.02;;;0.20;99.90;;;;;;5047290;28;20111;-66
2022/12/12 02:05:34;;;;;;;38.88;15.82;;;0.20;99.90;;;;;;5046785;28;20025;-66
2022/12/12 02:08:02;;;;;;;40.07;16.87;;;0.20;99.90;;;;;;5052049;28;20100;-66
2022/12/12 02:10:27;;;;;;;36.95;14.95;;;0.10;99.90;;;;;;5040814;28;20029;-66
2022/12/12 02:13:02;;;;;;;33.78;15.30;;;0.10;99.90;;;;;;5045257;28;20401;-66
2022/12/12 02:15:42;;;;;;;35.25;14.52;;;0.00;99.90;;;;;;5048187;28;20067;-66
2022/12/12 02:18:22;;;;;;;43.47;16.00;;;0.00;99.90;;;;;;5044314;28;20037;-65
2022/12/12 02:21:03;;;;;;;38.85;16.17;;;0.10;99.90;;;;;;5044363;28;20033;-66
2022/12/12 02:23:34;;;;;;;41.33;15.55;;;0.10;99.90;;;;;;5047193;28;20548;-67
2022/12/12 02:26:29;;;;;;;33.50;15.30;;;0.10;99.90;;;;;;5036273;28;20114;-66
2022/12/12 02:29:06;;;;;;;;;;;0.10;99.90;;;;;;5044416;28;20033;-66
2022/12/12 02:31:43;;;;;;;38.75;15.25;;;0.10;99.90;;;;;;5050558;28;19963;-66
2022/12/12 02:34:16;;;;;;;39.33;14.73;;;0.10;99.90;;;;;;5056650;28;20033;-66
2022/12/12 02:36:46;;;;;;;40.50;14.82;;;0.10;99.90;;;;;;5042889;28;20028;-67
2022/12/12 02:39:57;;;;;;;33.80;15.63;;;0.10;99.90;;;;;;5048076;28;20028;-66
2022/12/12 02:42:50;;;;;;;37.95;15.43;;;0.10;99.90;;;;;;4948614;28;20055;-66
2022/12/12 02:45:19;;;;;;;39.92;15.70;;;0.10;99.90;;;;;;5048632;28;20025;-66
2022/12/12 02:47:52;;;;;;;37.08;15.60;;;0.10;99.90;;;;;;5045037;28;20020;-66
2022/12/12 02:50:24;;;;;;;32.72;14.23;;;0.00;99.90;;;;;;5044660;28;20037;-65
2022/12/12 02:52:50;;;;;;;34.28;13.90;;;0.00;99.90;;;;;;5049792;28;20037;-65
2022/12/12 02:55:16;;;;;;;31.67;13.48;;;0.00;99.90;;;;;;5048098;28;20097;-66
2022/12/12 02:57:42;;;;;;;30.13;13.80;;;0.00;99.90;;;;;;5046088;28;20029;-67
2022/12/12 03:00:12;;;;;;;32.28;14.43;;;0.00;99.90;;;;;;5049377;28;20106;-66
2022/12/12 03:07:45;;;;;;;39.13;15.63;;;0.10;99.90;;;;;;5047584;28;20032;-65
2022/12/12 03:08:48;;;;;;;31.52;14.20;;;0.00;99.90;;;;;;5041874;28;20090;-66
2022/12/12 03:11:40;;;;;;;35.95;14.60;;;0.00;99.90;;;;;;5046254;28;20364;-65
2022/12/12 03:14:22;;;;;;;38.50;14.23;;;0.00;99.90;;;;;;5050462;28;20071;-65
2022/12/12 03:17:15;;;;;;;32.38;13.45;;;-0.10;99.90;;;;;;5050677;28;20025;-66
2022/12/12 03:19:54;;;;;;;33.88;14.30;;;-0.10;99.90;;;;;;5050924;28;20029;-66
2022/12/12 03:22:39;;;;;;;30.77;13.70;;;-0.20;99.90;;;;;;5050135;28;20161;-66
2022/12/12 03:25:26;;;;;;;42.55;14.80;;;-0.20;99.90;;;;;;5043582;28;20056;-66
2022/12/12 03:28:16;;;;;;;33.33;13.82;;;-0.20;99.90;;;;;;5056816;28;20036;-66
2022/12/12 03:30:45;;;;;;;30.10;12.93;;;-0.20;99.90;;;;;;5051378;28;20036;-67
2022/12/12 03:33:26;;;;;;;30.70;12.18;;;-0.30;99.90;;;;;;5050148;28;20033;-66
2022/12/12 03:36:05;;;;;;;32.10;14.63;;;-0.30;99.90;;;;;;5052674;28;20036;-66
2022/12/12 03:38:36;;;;;;;29.05;12.40;;;-0.30;99.90;;;;;;5054568;28;20039;-66
2022/12/12 03:41:07;;;;;;;28.05;11.73;;;-0.30;99.90;;;;;;5037173;28;20025;-66
2022/12/12 03:43:36;;;;;;;26.65;10.63;;;-0.30;99.90;;;;;;5050034;28;20033;-66
2022/12/12 03:46:30;;;;;;;28.00;11.95;;;-0.20;99.90;;;;;;5046383;28;20109;-66
2022/12/12 03:49:04;;;;;;;22.90;10.68;;;-0.20;99.90;;;;;;5040253;28;20040;-65
2022/12/12 03:51:30;;;;;;;;;;;-0.20;99.90;;;;;;5054216;28;20092;-65
2022/12/12 03:54:07;;;;;;;30.98;12.23;;;-0.20;99.90;;;;;;5049469;28;19999;-66
2022/12/12 03:56:45;;;;;;;28.05;11.13;;;-0.20;99.90;;;;;;5047368;28;20043;-67
2022/12/12 03:59:18;;;;;;;26.70;11.50;;;-0.30;99.90;;;;;;5057143;28;20565;-67
2022/12/12 04:01:55;;;;;;;25.88;10.55;;;-0.30;99.90;;;;;;5054799;28;20060;-66
2022/12/12 04:04:26;;;;;;;24.20;11.07;;;-0.30;99.90;;;;;;5043243;28;20132;-66
2022/12/12 04:07:13;;;;;;;34.05;11.38;;;-0.30;99.90;;;;;;5053784;28;20025;-66
2022/12/12 04:12:59;;;;;;;23.25;9.88;;;-0.30;99.90;;;;;;5050855;28;20060;-66
2022/12/12 04:15:56;;;;;;;24.98;10.05;;;-0.40;99.90;;;;;;5042902;28;20105;-65
2022/12/12 04:18:42;;;;;;;25.13;10.00;;;-0.40;99.90;;;;;;5047492;28;20067;-65
2022/12/12 04:24:07;;;;;;;19.20;9.23;;;-0.40;99.90;;;;;;5047978;28;20083;-66
2022/12/12 04:26:44;;;;;;;29.63;9.70;;;-0.40;99.90;;;;;;5017041;28;20064;-66
2022/12/12 04:29:28;;;;;;;23.02;9.48;;;-0.50;99.90;;;;;;5032785;28;20032;-67
2022/12/12 04:32:16;;;;;;;28.63;10.05;;;-0.50;99.90;;;;;;5033245;28;20033;-66
2022/12/12 04:34:56;;;;;;;20.92;9.40;;;-0.50;99.90;;;;;;5027900;28;20041;-66
2022/12/12 04:37:38;;;;;;;25.90;11.73;;;-0.50;99.90;;;;;;5030254;28;20030;-65
2022/12/12 04:40:07;;;;;;;30.15;14.18;;;-0.50;99.90;;;;;;5022326;28;20029;-66
2022/12/12 04:42:39;;;;;;;24.23;11.00;;;-0.50;99.90;;;;;;5028346;28;20029;-65
2022/12/12 04:45:18;;;;;;;24.67;10.65;;;-0.50;99.90;;;;;;5028284;28;20025;-66
2022/12/12 04:47:46;;;;;;;25.65;10.77;;;-0.50;99.90;;;;;;5027460;28;20096;-66
2022/12/12 04:50:14;;;;;;;22.60;9.35;;;-0.50;99.90;;;;;;5031318;28;20022;-66
2022/12/12 04:52:42;;;;;;;24.38;10.07;;;-0.50;99.90;;;;;;5031809;28;20021;-66
2022/12/12 04:55:18;;;;;;;23.02;9.25;;;-0.50;99.90;;;;;;5029540;28;20108;-66
2022/12/12 04:57:48;;;;;;;25.45;9.70;;;-0.60;99.90;;;;;;5030771;28;20036;-65
2022/12/12 05:00:15;;;;;;;21.20;9.48;;;-0.60;99.90;;;;;;5030347;28;20026;-65
2022/12/12 05:02:51;;;;;;;20.05;9.00;;;-0.60;99.90;;;;;;5028435;28;20045;-66
2022/12/12 05:05:23;;;;;;;28.08;10.48;;;-0.60;99.90;;;;;;5029246;28;20041;-66
2022/12/12 05:07:55;;;;;;;22.42;9.18;;;-0.70;99.90;;;;;;5030803;28;20526;-65
2022/12/12 05:10:21;;;;;;;20.42;9.13;;;-0.70;99.90;;;;;;5029509;28;20260;-64
2022/12/12 05:12:49;;;;;;;24.30;10.25;;;-0.70;99.90;;;;;;5031135;28;20045;-65
2022/12/12 05:15:17;;;;;;;22.83;9.07;;;-0.70;99.90;;;;;;5032522;28;20475;-66
2022/12/12 05:17:46;;;;;;;27.40;8.77;;;-0.70;99.90;;;;;;5024630;28;20030;-65
2022/12/12 05:20:13;;;;;;;26.33;10.18;;;-0.70;99.90;;;;;;5028821;28;20091;-66
2022/12/12 05:22:38;;;;;;;31.23;9.57;;;-0.70;99.90;;;;;;5029847;28;20033;-65
2022/12/12 05:25:04;;;;;;;27.20;10.27;;;-0.80;99.90;;;;;;5009961;28;20490;-65
2022/12/12 05:27:30;;;;;;;23.83;9.48;;;-0.70;99.90;;;;;;5020296;28;20833;-66
2022/12/12 05:29:55;;;;;;;23.95;10.38;;;-0.70;99.90;;;;;;5026522;28;20105;-67
2022/12/12 05:32:21;;;;;;;28.83;10.40;;;-0.70;99.90;;;;;;5024328;28;20505;-66
2022/12/12 05:34:47;;;;;;;22.58;10.05;;;-0.70;99.90;;;;;;5025651;28;20040;-67
2022/12/12 05:37:12;;;;;;;21.87;10.77;;;-0.70;99.90;;;;;;5028021;28;20033;-66
2022/12/12 05:39:38;;;;;;;20.55;9.35;;;-0.70;99.90;;;;;;5021078;28;20034;-67
2022/12/12 05:42:04;;;;;;;23.63;8.77;;;-0.70;99.90;;;;;;5020729;28;20033;-65
2022/12/12 05:44:29;;;;;;;24.65;9.70;;;-0.70;99.90;;;;;;5023242;28;20071;-66
2022/12/12 05:46:55;;;;;;;20.88;9.43;;;-0.70;99.90;;;;;;5022066;28;20034;-67
2022/12/12 05:49:20;;;;;;;27.63;11.43;;;-0.70;99.90;;;;;;5027605;28;20029;-66
2022/12/12 05:51:46;;;;;;;25.10;9.90;;;-0.70;99.90;;;;;;5022783;28;20097;-66
2022/12/12 05:54:12;;;;;;;22.27;9.13;;;-0.70;99.90;;;;;;5028015;28;20116;-66
2022/12/12 05:56:38;;;;;;;23.92;11.70;;;-0.70;99.90;;;;;;5019568;28;20088;-67
2022/12/12 05:59:04;;;;;;;25.93;10.23;;;-0.70;99.90;;;;;;5019244;28;20021;-66
2022/12/12 06:01:30;;;;;;;22.17;10.03;;;-0.70;99.90;;;;;;5022032;28;20026;-66
2022/12/12 06:03:56;;;;;;;22.47;10.50;;;-0.70;99.90;;;;;;5028253;28;20120;-66
2022/12/12 06:06:21;;;;;;;30.85;11.52;;;-0.70;99.90;;;;;;5026326;28;20440;-65
2022/12/12 06:08:47;;;;;;;20.25;9.60;;;-0.70;99.90;;;;;;5018070;28;20033;-66
2022/12/12 06:11:12;;;;;;;24.27;9.70;;;-0.70;99.90;;;;;;5017587;28;20059;-67
2022/12/12 06:13:38;;;;;;;19.50;8.33;;;-0.70;99.90;;;;;;5016551;28;20033;-66
2022/12/12 06:16:13;;;;;;;21.30;9.23;;;-0.70;99.90;;;;;;5026869;28;20037;-66
2022/12/12 06:18:38;;;;;;;22.02;9.15;;;-0.70;99.90;;;;;;5020032;28;20087;-66
2022/12/12 06:21:07;;;;;;;30.57;12.13;;;-0.70;99.90;;;;;;5020741;28;20550;-66
2022/12/12 06:23:38;;;;;;;59.60;23.75;;;-0.70;99.90;;;;;;5010649;28;20112;-67
2022/12/12 06:26:04;;;;;;;37.92;16.05;;;-0.70;99.90;;;;;;5005382;28;20038;-67
2022/12/12 06:28:30;;;;;;;26.90;11.65;;;-0.70;99.90;;;;;;5025599;28;20029;-67
2022/12/12 06:30:56;;;;;;;24.25;9.98;;;-0.70;99.90;;;;;;5024907;28;20029;-66
2022/12/12 06:33:21;;;;;;;23.73;9.50;;;-0.70;99.90;;;;;;5025592;28;20487;-67
2022/12/12 06:36:01;;;;;;;22.97;9.93;;;-0.70;99.90;;;;;;5025519;28;20029;-67
2022/12/12 06:38:26;;;;;;;23.40;9.65;;;-0.70;99.90;;;;;;5023273;28;20157;-66
2022/12/12 06:40:52;;;;;;;26.48;10.23;;;-0.70;99.90;;;;;;5004459;28;20120;-68
2022/12/12 06:43:18;;;;;;;21.33;9.85;;;-0.70;99.90;;;;;;5020469;28;20124;-67
2022/12/12 06:45:43;;;;;;;21.50;9.90;;;-0.70;99.90;;;;;;5026156;28;20025;-66
2022/12/12 06:48:09;;;;;;;24.73;8.87;;;-0.80;99.90;;;;;;5021239;28;20731;-67
2022/12/12 06:50:39;;;;;;;21.20;9.30;;;-0.80;99.90;;;;;;5026168;28;20044;-68
2022/12/12 06:53:05;;;;;;;20.20;9.30;;;-0.80;99.90;;;;;;5018600;28;20383;-67
2022/12/12 06:55:30;;;;;;;26.73;10.23;;;-0.80;99.90;;;;;;5023838;28;20037;-67
2022/12/12 06:57:56;;;;;;;27.13;10.07;;;-0.80;99.90;;;;;;5018318;28;20099;-67
2022/12/12 07:00:21;;;;;;;20.50;10.23;;;-0.80;99.90;;;;;;5025286;28;20705;-66
2022/12/12 07:02:47;;;;;;;29.40;10.98;;;-0.80;99.90;;;;;;5024359;28;20021;-67
2022/12/12 07:05:12;;;;;;;16.93;8.60;;;-0.80;99.90;;;;;;5015157;28;20026;-68
2022/12/12 07:07:38;;;;;;;25.73;10.17;;;-0.80;99.90;;;;;;5017342;28;20080;-67
2022/12/12 07:10:04;;;;;;;26.67;10.80;;;-0.70;99.90;;;;;;5019651;28;20482;-68
2022/12/12 07:12:30;;;;;;;25.03;9.27;;;-0.80;99.90;;;;;;5022378;28;20066;-67
2022/12/12 07:14:55;;;;;;;22.33;11.98;;;-0.80;99.90;;;;;;5020061;28;20091;-66
2022/12/12 07:17:21;;;;;;;22.43;10.00;;;-0.80;99.90;;;;;;5019084;28;20539;-68
2022/12/12 07:19:47;;;;;;;25.27;10.75;;;-0.80;99.90;;;;;;5016120;28;20161;-67
2022/12/12 07:22:12;;;;;;;24.48;9.30;;;-0.80;99.90;;;;;;5028590;28;20052;-67
2022/12/12 07:24:38;;;;;;;27.63;9.90;;;-0.80;99.90;;;;;;5025493;28;20025;-68
2022/12/12 07:27:05;;;;;;;24.27;11.23;;;-0.80;99.90;;;;;;5025256;28;20090;-67
2022/12/12 07:29:31;;;;;;;28.07;11.17;;;-0.80;99.90;;;;;;5054017;28;20021;-66
2022/12/12 07:31:56;;;;;;;37.40;13.02;;;-0.80;99.90;;;;;;5050012;28;20037;-67
2022/12/12 07:34:22;;;;;;;23.58;10.23;;;-0.80;99.90;;;;;;5045147;28;20033;-67
2022/12/12 07:36:48;;;;;;;24.35;10.60;;;-0.80;99.90;;;;;;5045890;28;20103;-67
2022/12/12 07:39:13;;;;;;;20.93;10.43;;;-0.80;99.90;;;;;;5051868;28;20128;-66
2022/12/12 07:41:39;;;;;;;30.95;11.55;;;-0.80;99.90;;;;;;5051061;28;20060;-68
2022/12/12 07:44:05;;;;;;;22.63;10.07;;;-0.90;99.90;;;;;;5043992;28;20025;-67
2022/12/12 07:46:31;;;;;;;18.27;8.40;;;-0.80;99.90;;;;;;5052985;28;20440;-67
2022/12/12 07:48:56;;;;;;;26.88;11.40;;;-0.80;99.90;;;;;;5046741;28;20483;-67
2022/12/12 07:51:23;;;;;;;93.60;35.85;;;-0.80;99.90;;;;;;5043453;28;20029;-67
2022/12/12 07:53:48;;;;;;;51.23;19.53;;;-0.80;99.90;;;;;;5048209;28;20040;-67
2022/12/12 07:56:16;;;;;;;38.33;16.25;;;-0.80;99.90;;;;;;5025768;28;20056;-67
2022/12/12 07:58:42;;;;;;;36.85;13.50;;;-0.80;99.90;;;;;;5051934;28;20032;-67
2022/12/12 08:01:13;;;;;;;37.83;13.40;;;-0.80;99.90;;;;;;5054247;28;20063;-68
2022/12/12 08:03:38;;;;;;;29.50;10.40;;;-0.80;99.90;;;;;;5046359;28;20418;-67
2022/12/12 08:06:05;;;;;;;22.37;10.53;;;-0.80;99.90;;;;;;5057089;28;20086;-68
2022/12/12 08:08:31;;;;;;;34.03;12.57;;;-0.80;99.90;;;;;;5036088;28;20083;-67
2022/12/12 08:10:57;;;;;;;41.77;15.27;;;-0.90;99.90;;;;;;5051120;28;20032;-67
2022/12/12 08:13:23;;;;;;;37.20;14.80;;;-0.90;99.90;;;;;;5049337;28;20033;-67
2022/12/12 08:15:48;;;;;;;78.43;24.15;;;-0.90;99.90;;;;;;5046792;28;20502;-68
2022/12/12 08:18:14;;;;;;;69.33;23.57;;;-0.90;99.90;;;;;;5049795;28;20108;-65
2022/12/12 08:20:40;;;;;;;29.73;11.83;;;-0.90;99.90;;;;;;5056153;28;20027;-67
2022/12/12 08:23:06;;;;;;;23.77;8.90;;;-0.90;99.90;;;;;;5053807;28;20051;-66
2022/12/12 08:25:34;;;;;;;22.67;9.33;;;-0.90;99.90;;;;;;5036380;28;20075;-67
2022/12/12 08:27:59;;;;;;;21.43;9.03;;;-0.90;99.90;;;;;;5047893;28;20021;-66
2022/12/12 08:30:25;;;;;;;44.92;13.63;;;-0.80;99.90;;;;;;5051908;28;20487;-67
2022/12/12 08:32:51;;;;;;;37.03;12.40;;;-0.80;99.90;;;;;;5051841;28;20028;-69
2022/12/12 08:35:16;;;;;;;31.30;11.67;;;-0.90;99.90;;;;;;5051195;28;20021;-66
2022/12/12 08:37:42;;;;;;;28.55;11.07;;;-0.80;99.90;;;;;;5049781;28;20071;-66
2022/12/12 08:40:08;;;;;;;30.33;12.47;;;-0.80;99.90;;;;;;5049965;28;20029;-66
2022/12/12 08:42:34;;;;;;;28.33;12.40;;;-0.90;99.90;;;;;;5049610;28;20025;-66
2022/12/12 08:44:59;;;;;;;23.45;10.50;;;-0.90;99.90;;;;;;5048224;28;20041;-66
2022/12/12 08:47:25;;;;;;;21.13;10.53;;;-0.90;99.90;;;;;;5050595;28;20021;-66
2022/12/12 08:49:50;;;;;;;21.00;8.23;;;-0.90;99.90;;;;;;5051184;28;20040;-67
2022/12/12 08:52:16;;;;;;;19.47;8.17;;;-1.00;99.90;;;;;;5050061;28;20024;-66
2022/12/12 08:54:42;;;;;;;23.10;9.40;;;-1.00;99.90;;;;;;5043549;28;20988;-66
2022/12/12 08:57:08;;;;;;;21.27;8.03;;;-1.00;99.90;;;;;;5046079;28;20017;-66
2022/12/12 08:59:33;;;;;;;27.00;8.83;;;-1.00;99.90;;;;;;5047426;28;20051;-66
2022/12/12 09:01:59;;;;;;;21.77;9.50;;;-1.00;99.90;;;;;;5045801;28;20107;-66
2022/12/12 09:04:24;;;;;;;24.87;10.40;;;-1.00;99.90;;;;;;5047051;28;20032;-66
2022/12/12 09:06:50;;;;;;;27.20;10.40;;;-0.80;99.90;;;;;;5050118;28;20033;-66
2022/12/12 09:09:16;;;;;;;20.83;10.13;;;-0.70;99.90;;;;;;5048439;28;20108;-66
2022/12/12 09:11:42;;;;;;;27.08;11.55;;;-0.70;99.90;;;;;;5050628;28;20025;-66
2022/12/12 09:14:07;;;;;;;24.10;10.95;;;-0.70;99.90;;;;;;5050021;28;20078;-66
2022/12/12 09:16:33;;;;;;;31.15;12.10;;;-0.60;99.90;;;;;;5052056;28;20017;-66
2022/12/12 09:18:58;;;;;;;19.73;10.60;;;-0.60;99.90;;;;;;5053253;28;20020;-66
2022/12/12 09:21:24;;;;;;;23.38;9.02;;;-0.50;99.90;;;;;;5052361;28;20036;-66
2022/12/12 09:23:50;;;;;;;26.50;9.38;;;-0.50;99.90;;;;;;5054125;28;20064;-66
2022/12/12 09:26:16;;;;;;;21.48;9.57;;;-0.60;99.90;;;;;;5039845;28;20132;-66
2022/12/12 09:28:42;;;;;;;20.25;7.88;;;-0.60;99.90;;;;;;5050935;28;20120;-66
2022/12/12 09:31:10;;;;;;;24.92;10.35;;;-0.60;99.90;;;;;;5053133;28;20747;-64
2022/12/12 09:33:36;;;;;;;29.95;10.30;;;-0.50;99.90;;;;;;5047154;28;20063;-66
2022/12/12 09:36:04;;;;;;;21.92;9.98;;;-0.50;99.90;;;;;;5049461;28;20064;-66
2022/12/12 09:38:30;;;;;;;26.38;11.18;;;-0.40;99.90;;;;;;5051479;28;20066;-66
2022/12/12 09:41:01;;;;;;;22.85;9.80;;;-0.40;99.90;;;;;;5048861;28;20099;-67
2022/12/12 09:43:30;;;;;;;25.83;9.88;;;-0.30;99.90;;;;;;5043262;28;20121;-67
2022/12/12 09:45:57;;;;;;;20.15;9.82;;;-0.30;99.90;;;;;;5048303;28;20100;-66
2022/12/12 09:48:34;;;;;;;20.98;9.35;;;-0.30;99.90;;;;;;5049006;28;20372;-65
2022/12/12 09:51:00;;;;;;;21.15;9.98;;;-0.30;99.90;;;;;;5042830;28;20021;-65
2022/12/12 09:53:27;;;;;;;19.90;9.00;;;-0.40;99.90;;;;;;5045451;28;20036;-66
2022/12/12 09:56:11;;;;;;;20.38;9.80;;;-0.40;99.90;;;;;;5042988;28;20033;-67
2022/12/12 09:59:18;;;;;;;24.40;8.70;;;-0.40;99.90;;;;;;5047608;28;20032;-66
2022/12/12 10:02:04;;;;;;;26.83;10.23;;;-0.40;99.90;;;;;;5036899;28;20082;-68
2022/12/12 10:04:45;;;;;;;23.38;10.93;;;-0.40;99.90;;;;;;5042530;28;20550;-67
2022/12/12 10:07:28;;;;;;;25.35;11.35;;;-0.40;99.90;;;;;;5045890;28;20029;-66
2022/12/12 10:10:11;;;;;;;25.27;10.52;;;-0.40;99.90;;;;;;5047004;28;20066;-67
2022/12/12 10:12:38;;;;;;;23.15;10.63;;;-0.40;99.90;;;;;;5048465;28;20025;-67
2022/12/12 10:15:21;;;;;;;25.48;9.75;;;-0.30;99.90;;;;;;5045328;28;20029;-67
2022/12/12 10:17:47;;;;;;;28.02;10.52;;;-0.30;99.90;;;;;;5048314;28;20389;-66
2022/12/12 10:20:17;;;;;;;27.80;12.95;;;-0.30;99.90;;;;;;5048453;28;20037;-67
2022/12/12 10:22:49;;;;;;;24.27;11.25;;;-0.20;99.90;;;;;;5058346;28;20359;-67
2022/12/12 10:25:39;;;;;;;28.73;12.88;;;-0.10;99.90;;;;;;5047973;28;20079;-67
2022/12/12 10:28:13;;;;;;;24.40;11.73;;;-0.10;99.90;;;;;;5047464;28;20151;-67
2022/12/12 10:30:53;;;;;;;31.02;12.25;;;0.00;99.90;;;;;;5046643;28;20483;-67
2022/12/12 10:33:46;;;;;;;29.67;11.57;;;0.00;99.90;;;;;;5045899;28;20025;-67
2022/12/12 10:36:49;;;;;;;27.15;12.10;;;0.00;99.90;;;;;;5046980;28;20067;-67
2022/12/12 10:39:21;;;;;;;26.63;11.10;;;0.10;99.90;;;;;;5053763;28;20032;-66
2022/12/12 10:42:15;;;;;;;30.42;12.35;;;0.10;99.90;;;;;;5052214;28;20483;-66
2022/12/12 10:44:55;;;;;;;28.83;11.25;;;0.10;99.90;;;;;;5047305;28;20371;-66
2022/12/12 10:47:21;;;;;;;25.35;10.88;;;0.20;99.90;;;;;;5043632;28;20490;-67
2022/12/12 10:49:48;;;;;;;27.13;12.75;;;0.20;99.90;;;;;;5046000;28;20060;-67
2022/12/12 10:52:19;;;;;;;28.98;12.35;;;0.20;99.90;;;;;;5048232;28;20017;-67
2022/12/12 10:54:49;;;;;;;26.67;11.63;;;0.20;99.90;;;;;;5044499;28;20371;-68
2022/12/12 10:57:23;;;;;;;26.48;12.77;;;0.40;99.90;;;;;;5042514;28;20021;-67
2022/12/12 10:59:52;;;;;;;25.58;10.85;;;0.40;99.90;;;;;;5046211;28;20028;-67
2022/12/12 11:02:28;;;;;;;25.83;11.52;;;0.50;99.90;;;;;;5045691;28;20029;-67
2022/12/12 11:05:06;;;;;;;28.33;11.68;;;0.60;99.90;;;;;;5051330;28;20042;-67
2022/12/12 11:07:40;;;;;;;22.15;10.10;;;0.60;99.90;;;;;;5041591;28;20428;-67
2022/12/12 11:10:29;;;;;;;26.02;11.52;;;0.60;99.90;;;;;;5047241;28;20021;-67
2022/12/12 11:13:00;;;;;;;24.15;11.00;;;0.70;99.90;;;;;;5037952;28;20068;-66
2022/12/12 11:15:37;;;;;;;32.35;11.52;;;0.70;99.90;;;;;;5052183;28;20036;-66
2022/12/12 11:18:03;;;;;;;23.30;10.68;;;0.80;99.90;;;;;;5051943;28;20490;-67
2022/12/12 11:20:29;;;;;;;21.15;8.32;;;0.90;99.90;;;;;;5051065;28;20105;-66
2022/12/12 11:22:56;;;;;;;22.63;10.15;;;1.00;99.90;;;;;;5043585;28;20457;-66
2022/12/12 11:25:25;;;;;;;20.63;8.30;;;0.90;99.90;;;;;;5044789;28;20544;-66
2022/12/12 11:27:52;;;;;;;18.30;7.50;;;0.90;99.90;;;;;;5027326;28;20041;-65
2022/12/12 11:30:38;;;;;;;23.65;10.10;;;0.90;99.90;;;;;;5044466;28;20017;-66
2022/12/12 11:33:06;;;;;;;20.40;8.63;;;0.90;99.90;;;;;;5046857;28;20025;-66
2022/12/12 11:35:38;;;;;;;26.27;8.80;;;0.80;99.90;;;;;;5047262;28;20027;-66
2022/12/12 11:38:16;;;;;;;20.35;9.05;;;0.80;99.90;;;;;;5049844;28;20032;-66
2022/12/12 11:40:43;;;;;;;17.20;8.68;;;0.70;99.90;;;;;;5051780;28;20032;-66
2022/12/12 11:43:15;;;;;;;17.77;8.52;;;0.80;99.90;;;;;;5048582;28;20091;-67
2022/12/12 11:45:40;;;;;;;21.45;9.32;;;0.80;99.90;;;;;;5042309;28;20017;-66
2022/12/12 11:48:28;;;;;;;20.50;9.05;;;0.80;99.90;;;;;;5043244;28;20037;-66
2022/12/12 11:50:54;;;;;;;21.42;9.02;;;0.80;99.90;;;;;;5036875;28;20032;-66
2022/12/12 11:53:19;;;;;;;27.23;11.43;;;0.70;99.90;;;;;;5042520;28;20686;-65
2022/12/12 11:55:59;;;;;;;24.05;9.90;;;0.80;99.90;;;;;;5051600;28;20406;-66
2022/12/12 11:58:31;;;;;;;19.92;9.50;;;0.80;99.90;;;;;;5051020;28;20116;-66
2022/12/12 12:01:06;;;;;;;25.70;10.32;;;0.80;99.90;;;;;;5051688;28;20083;-66
2022/12/12 12:03:52;;;;;;;33.45;11.88;;;0.80;99.90;;;;;;5047487;28;20090;-66
2022/12/12 12:06:39;;;;;;;19.13;9.50;;;0.80;99.90;;;;;;5036700;28;20032;-66
2022/12/12 12:09:19;;;;;;;14.60;7.68;;;0.80;99.90;;;;;;5042671;28;20025;-66
2022/12/12 12:12:11;;;;;;;20.88;8.95;;;0.80;99.90;;;;;;5051168;28;20087;-67
2022/12/12 12:14:39;;;;;;;19.45;8.88;;;0.80;99.90;;;;;;5050797;28;20029;-67
2022/12/12 12:17:08;;;;;;;19.80;9.25;;;0.90;99.90;;;;;;5044620;28;20498;-67
2022/12/12 12:19:46;;;;;;;19.55;8.65;;;0.80;99.90;;;;;;5045348;28;20071;-67
2022/12/12 12:22:50;;;;;;;20.30;9.50;;;0.90;99.90;;;;;;5052678;28;20669;-66
2022/12/12 12:25:28;;;;;;;21.43;9.97;;;0.90;99.90;;;;;;5025654;28;20039;-65
2022/12/12 12:28:28;;;;;;;18.33;8.05;;;0.90;99.90;;;;;;5043492;28;20498;-66
2022/12/12 12:31:03;;;;;;;18.17;8.40;;;0.90;99.90;;;;;;5044248;28;20106;-66
2022/12/12 12:33:50;;;;;;;22.02;9.60;;;0.80;99.90;;;;;;5046802;28;20052;-66
2022/12/12 12:36:51;;;;;;;18.85;9.02;;;0.90;99.90;;;;;;5049983;28;20020;-67
2022/12/12 12:39:24;;;;;;;18.58;8.20;;;0.90;99.90;;;;;;5030853;28;20144;-67
2022/12/12 12:42:02;;;;;;;18.52;7.18;;;0.90;99.90;;;;;;5051626;28;20040;-66
2022/12/12 12:44:42;;;;;;;21.65;9.10;;;0.90;99.90;;;;;;5050613;28;20036;-66
2022/12/12 12:47:34;;;;;;;26.65;10.23;;;0.90;99.90;;;;;;5049534;28;20081;-66
2022/12/12 12:50:16;;;;;;;22.92;10.27;;;0.90;99.90;;;;;;5049199;28;20036;-67
2022/12/12 12:52:58;;;;;;;20.00;8.48;;;0.90;99.90;;;;;;5042234;28;20036;-67
2022/12/12 12:55:43;;;;;;;19.90;7.35;;;0.90;99.90;;;;;;5043692;28;20517;-66
2022/12/12 12:58:41;;;;;;;19.17;8.10;;;0.90;99.90;;;;;;5045784;28;20032;-66
2022/12/12 13:01:12;;;;;;;19.77;9.32;;;0.90;99.90;;;;;;5040956;28;20040;-66
2022/12/12 13:03:57;;;;;;;20.13;8.13;;;0.90;99.90;;;;;;5043917;28;20120;-66
2022/12/12 13:06:45;;;;;;;15.77;7.72;;;1.00;99.90;;;;;;5039084;28;20025;-67
2022/12/12 13:09:47;;;;;;;16.95;7.70;;;0.90;99.90;;;;;;5047255;28;20036;-66